Time;durP1;ratioP1;P1;durP2;ratioP2;P2;SDS_P1;SDS_P2;PMS_P1;PMS_P2;Temp;Humidity;BMP_temperature;BMP_pressure;BME280_temperature;BME280_humidity;BME280_pressure;Samples;Min_cycle;Max_cycle;Signal;HPM_P1;HPM_P2
2022/11/25 00:00:04;;;;;;;6.55;2.03;;;;;;;;;;5064853;28;20055;-61
2022/11/25 00:02:30;;;;;;;10.02;3.35;;;;;;;;;;5063910;28;20058;-61
2022/11/25 00:04:56;;;;;;;5.50;2.05;;;;;;;;;;5065065;28;20545;-61
2022/11/25 00:07:22;;;;;;;4.03;1.80;;;;;;;;;;5064641;28;20036;-61
2022/11/25 00:09:48;;;;;;;5.63;2.25;;;;;;;;;;5096703;28;20048;-61
2022/11/25 00:12:14;;;;;;;7.28;2.78;;;;;;;;;;5064268;28;20508;-61
2022/11/25 00:14:40;;;;;;;7.07;2.20;;;;;;;;;;5063819;28;20836;-61
2022/11/25 00:17:06;;;;;;;6.88;2.70;;;;;;;;;;5064465;28;20041;-61
2022/11/25 00:19:32;;;;;;;3.58;1.80;;;;;;;;;;5064269;28;20059;-61
2022/11/25 00:21:58;;;;;;;9.00;1.83;;;;;;;;;;5065351;28;20466;-61
2022/11/25 00:24:24;;;;;;;8.98;2.80;;;;;;;;;;5063579;28;20131;-61
2022/11/25 00:26:50;;;;;;;11.95;2.78;;;;;;;;;;5065170;28;20097;-61
2022/11/25 00:29:16;;;;;;;6.68;2.42;;;;;;;;;;5064267;28;20395;-61
2022/11/25 00:31:42;;;;;;;6.28;2.83;;;;;;;;;;5063886;28;20045;-61
2022/11/25 00:34:11;;;;;;;10.93;3.55;;;;;;;;;;5065890;28;20050;-61
2022/11/25 00:36:37;;;;;;;8.27;2.20;;;;;;;;;;5065150;28;20501;-61
2022/11/25 00:39:04;;;;;;;8.77;2.20;;;;;;;;;;5067497;28;20048;-61
2022/11/25 00:44:34;;;;;;;7.18;2.08;;;;;;;;;;5065042;28;20131;-61
2022/11/25 00:47:03;;;;;;;6.65;2.30;;;;;;;;;;5063425;28;20045;-60
2022/11/25 00:49:29;;;;;;;9.30;3.05;;;;;;;;;;5064091;28;20132;-61
2022/11/25 00:51:55;;;;;;;8.48;3.58;;;;;;;;;;5063821;28;20052;-61
2022/11/25 00:54:22;;;;;;;7.68;1.80;;;;;;;;;;5063946;28;20418;-61
2022/11/25 00:56:47;;;;;;;6.85;2.13;;;;;;;;;;5064981;28;20048;-61
2022/11/25 00:59:13;;;;;;;6.65;2.25;;;;;;;;;;5064697;28;20323;-61
2022/11/25 01:01:39;;;;;;;13.00;2.95;;;;;;;;;;5065753;28;20056;-61
2022/11/25 01:04:06;;;;;;;7.72;2.40;;;;;;;;;;5063673;28;20395;-61
2022/11/25 01:06:32;;;;;;;8.15;2.55;;;;;;;;;;5063179;28;20122;-61
2022/11/25 01:08:58;;;;;;;7.57;2.20;;;;;;;;;;5064732;28;20048;-61
2022/11/25 01:11:24;;;;;;;7.93;2.75;;;;;;;;;;5060806;28;20063;-61
2022/11/25 01:13:53;;;;;;;8.18;1.90;;;;;;;;;;5062866;28;20052;-61
2022/11/25 01:16:20;;;;;;;5.22;2.03;;;;;;;;;;5063750;28;20684;-61
2022/11/25 01:18:47;;;;;;;6.40;2.35;;;;;;;;;;5063535;28;20048;-61
2022/11/25 01:21:14;;;;;;;7.85;2.20;;;;;;;;;;5064817;28;20045;-61
2022/11/25 01:23:41;;;;;;;4.35;1.88;;;;;;;;;;5065059;28;20118;-61
2022/11/25 01:26:08;;;;;;;10.68;2.95;;;;;;;;;;5066158;28;20051;-61
2022/11/25 01:28:34;;;;;;;7.90;2.47;;;;;;;;;;5067376;28;20470;-61
2022/11/25 01:31:00;;;;;;;7.47;2.03;;;;;;;;;;5069354;28;20521;-61
2022/11/25 01:33:26;;;;;;;8.40;2.20;;;;;;;;;;5067604;28;20080;-61
2022/11/25 01:35:52;;;;;;;3.65;1.50;;;;;;;;;;5069599;28;20084;-61
2022/11/25 01:38:18;;;;;;;8.52;1.92;;;;;;;;;;5068253;28;20072;-61
2022/11/25 01:40:44;;;;;;;5.85;1.95;;;;;;;;;;5066411;28;20043;-61
2022/11/25 01:43:14;;;;;;;7.60;2.35;;;;;;;;;;5068261;28;20368;-61
2022/11/25 01:45:40;;;;;;;5.13;1.92;;;;;;;;;;5069006;28;20041;-61
2022/11/25 01:48:12;;;;;;;5.55;2.13;;;;;;;;;;5066458;28;20040;-61
2022/11/25 01:50:38;;;;;;;5.28;2.10;;;;;;;;;;5066964;28;20044;-61
2022/11/25 01:53:06;;;;;;;4.47;2.05;;;;;;;;;;5067477;28;20083;-61
2022/11/25 01:55:33;;;;;;;3.45;1.70;;;;;;;;;;5065915;28;20502;-61
2022/11/25 01:58:05;;;;;;;3.60;1.73;;;;;;;;;;5067763;28;20045;-61
2022/11/25 02:00:31;;;;;;;5.63;2.03;;;;;;;;;;5066466;28;20052;-61
2022/11/25 02:02:57;;;;;;;4.10;2.28;;;;;;;;;;5066241;28;20675;-61
2022/11/25 02:05:29;;;;;;;6.50;2.22;;;;;;;;;;5066652;28;20106;-61
2022/11/25 02:07:56;;;;;;;4.68;1.92;;;;;;;;;;5066545;28;20449;-61
2022/11/25 02:10:25;;;;;;;5.65;2.08;;;;;;;;;;5065483;28;20207;-61
2022/11/25 02:12:51;;;;;;;5.63;2.08;;;;;;;;;;5066962;28;20515;-61
2022/11/25 02:15:17;;;;;;;8.75;2.85;;;;;;;;;;5065293;28;20486;-61
2022/11/25 02:17:44;;;;;;;9.63;2.70;;;;;;;;;;5066613;28;20044;-61
2022/11/25 02:20:14;;;;;;;4.80;1.98;;;;;;;;;;5066718;28;20048;-61
2022/11/25 02:22:40;;;;;;;12.23;2.85;;;;;;;;;;5066180;28;20045;-61
2022/11/25 02:25:26;;;;;;;7.32;2.42;;;;;;;;;;5066982;28;20037;-61
2022/11/25 02:28:00;;;;;;;6.88;2.80;;;;;;;;;;5067104;28;20064;-61
2022/11/25 02:30:26;;;;;;;9.63;2.50;;;;;;;;;;5063495;28;20052;-62
2022/11/25 02:32:52;;;;;;;12.50;2.17;;;;;;;;;;5067208;28;20130;-62
2022/11/25 02:35:29;;;;;;;8.73;2.45;;;;;;;;;;5098739;28;20092;-61
2022/11/25 02:37:58;;;;;;;6.30;1.80;;;;;;;;;;5065247;28;20039;-61
2022/11/25 02:40:25;;;;;;;4.55;1.83;;;;;;;;;;5065462;28;20045;-61
2022/11/25 02:42:52;;;;;;;4.25;1.75;;;;;;;;;;5066013;28;20048;-61
2022/11/25 02:45:21;;;;;;;5.20;1.70;;;;;;;;;;5065404;28;20052;-61
2022/11/25 02:47:47;;;;;;;6.22;2.55;;;;;;;;;;5066130;28;20441;-61
2022/11/25 02:50:13;;;;;;;5.53;2.42;;;;;;;;;;5066010;28;20083;-61
2022/11/25 02:52:39;;;;;;;8.93;2.47;;;;;;;;;;5065404;28;20040;-61
2022/11/25 02:55:05;;;;;;;6.85;1.95;;;;;;;;;;5066481;28;20045;-61
2022/11/25 02:57:31;;;;;;;2.50;1.63;;;;;;;;;;5065016;28;20131;-61
2022/11/25 02:59:57;;;;;;;12.73;3.45;;;;;;;;;;5066462;28;20131;-61
2022/11/25 03:02:23;;;;;;;11.90;2.30;;;;;;;;;;5065666;28;20407;-61
2022/11/25 03:04:49;;;;;;;8.23;2.65;;;;;;;;;;5065939;28;20090;-61
2022/11/25 03:07:15;;;;;;;3.08;1.85;;;;;;;;;;5065484;28;20052;-61
2022/11/25 03:09:42;;;;;;;11.57;3.38;;;;;;;;;;5066263;28;20086;-61
2022/11/25 03:12:20;;;;;;;7.15;2.08;;;;;;;;;;5066066;28;20052;-61
2022/11/25 03:14:47;;;;;;;9.95;3.67;;;;;;;;;;5065719;28;20066;-61
2022/11/25 03:17:13;;;;;;;10.85;3.25;;;;;;;;;;5067755;28;20045;-61
2022/11/25 03:19:39;;;;;;;7.22;3.40;;;;;;;;;;5065875;28;20052;-61
2022/11/25 03:22:05;;;;;;;8.27;3.03;;;;;;;;;;5066025;28;20045;-61
2022/11/25 03:24:31;;;;;;;6.65;2.70;;;;;;;;;;5064726;28;20080;-61
2022/11/25 03:26:57;;;;;;;9.75;3.75;;;;;;;;;;5065026;28;20652;-61
2022/11/25 03:29:23;;;;;;;8.70;3.38;;;;;;;;;;5065509;28;20045;-61
2022/11/25 03:31:49;;;;;;;7.40;2.70;;;;;;;;;;5065775;28;20068;-61
2022/11/25 03:34:15;;;;;;;7.32;2.45;;;;;;;;;;5064575;28;20045;-61
2022/11/25 03:36:41;;;;;;;6.28;2.65;;;;;;;;;;5064824;28;20377;-61
2022/11/25 03:39:07;;;;;;;6.55;2.67;;;;;;;;;;5065247;28;20139;-61
2022/11/25 03:41:33;;;;;;;8.38;3.28;;;;;;;;;;5064627;28;20049;-61
2022/11/25 03:43:59;;;;;;;8.27;2.90;;;;;;;;;;5065590;28;20151;-61
2022/11/25 03:46:25;;;;;;;7.53;3.05;;;;;;;;;;5064769;28;20048;-61
2022/11/25 03:48:51;;;;;;;6.75;3.13;;;;;;;;;;5063811;28;20399;-61
2022/11/25 03:51:17;;;;;;;7.80;2.80;;;;;;;;;;5064516;28;20127;-61
2022/11/25 03:53:43;;;;;;;6.30;2.72;;;;;;;;;;5064467;28;20049;-61
2022/11/25 03:56:09;;;;;;;4.55;2.28;;;;;;;;;;5064680;28;20078;-61
2022/11/25 03:58:35;;;;;;;6.80;3.03;;;;;;;;;;5065126;28;20419;-61
2022/11/25 04:01:02;;;;;;;6.07;2.28;;;;;;;;;;5064659;28;20510;-61
2022/11/25 04:03:28;;;;;;;5.50;2.58;;;;;;;;;;5064905;28;20044;-61
2022/11/25 04:05:54;;;;;;;7.72;2.83;;;;;;;;;;5065008;28;20484;-61
2022/11/25 04:08:20;;;;;;;6.20;2.42;;;;;;;;;;5064741;28;20086;-61
2022/11/25 04:10:48;;;;;;;6.30;2.47;;;;;;;;;;5064596;28;20056;-61
2022/11/25 04:13:14;;;;;;;8.30;3.70;;;;;;;;;;5065428;28;20110;-61
2022/11/25 04:15:45;;;;;;;7.20;3.58;;;;;;;;;;5064182;28;20134;-61
2022/11/25 04:18:11;;;;;;;7.65;3.35;;;;;;;;;;5062944;28;20403;-62
2022/11/25 04:20:37;;;;;;;13.38;4.32;;;;;;;;;;5064663;28;20044;-61
2022/11/25 04:23:05;;;;;;;6.22;2.83;;;;;;;;;;5064280;28;20141;-61
2022/11/25 04:25:31;;;;;;;5.65;3.30;;;;;;;;;;5064327;28;20541;-61
2022/11/25 04:27:57;;;;;;;6.13;3.20;;;;;;;;;;5064392;28;20047;-62
2022/11/25 04:30:23;;;;;;;9.52;3.75;;;;;;;;;;5064654;28;20098;-61
2022/11/25 04:32:49;;;;;;;9.60;3.42;;;;;;;;;;5064784;28;20036;-61
2022/11/25 04:35:15;;;;;;;7.97;3.13;;;;;;;;;;5064991;28;20068;-62
2022/11/25 04:37:41;;;;;;;9.38;3.13;;;;;;;;;;5064467;28;20090;-61
2022/11/25 04:40:07;;;;;;;5.57;2.95;;;;;;;;;;5065020;28;20131;-62
2022/11/25 04:42:35;;;;;;;4.63;2.60;;;;;;;;;;5064203;28;20635;-61
2022/11/25 04:45:03;;;;;;;11.45;4.18;;;;;;;;;;5064885;28;20078;-61
2022/11/25 04:47:29;;;;;;;9.00;3.33;;;;;;;;;;5063973;28;20765;-61
2022/11/25 04:49:55;;;;;;;9.48;3.33;;;;;;;;;;5064476;28;20130;-61
2022/11/25 04:52:21;;;;;;;7.35;3.60;;;;;;;;;;5064650;28;20136;-61
2022/11/25 04:54:47;;;;;;;6.60;3.85;;;;;;;;;;5064979;28;20421;-61
2022/11/25 04:57:14;;;;;;;13.30;4.10;;;;;;;;;;5064618;28;20052;-61
2022/11/25 04:59:40;;;;;;;7.63;3.50;;;;;;;;;;5063626;28;20040;-61
2022/11/25 05:02:13;;;;;;;8.32;4.15;;;;;;;;;;5068913;28;20040;-61
2022/11/25 05:04:40;;;;;;;6.93;3.33;;;;;;;;;;5067361;28;20453;-61
2022/11/25 05:07:06;;;;;;;9.20;3.58;;;;;;;;;;5069584;28;20043;-61
2022/11/25 05:09:32;;;;;;;9.23;3.78;;;;;;;;;;5068436;28;20136;-61
2022/11/25 05:11:58;;;;;;;8.45;3.60;;;;;;;;;;5068493;28;20052;-61
2022/11/25 05:14:24;;;;;;;7.93;4.10;;;;;;;;;;5067718;28;20051;-61
2022/11/25 05:16:51;;;;;;;8.00;4.07;;;;;;;;;;5068129;28;20044;-61
2022/11/25 05:19:17;;;;;;;6.60;3.13;;;;;;;;;;5063533;28;20099;-61
2022/11/25 05:21:43;;;;;;;9.80;4.50;;;;;;;;;;5067334;28;20047;-61
2022/11/25 05:24:09;;;;;;;5.75;2.72;;;;;;;;;;5068206;28;20045;-61
2022/11/25 05:26:35;;;;;;;7.00;3.22;;;;;;;;;;5067005;28;20047;-61
2022/11/25 05:29:01;;;;;;;6.03;2.95;;;;;;;;;;5068379;28;20087;-61
2022/11/25 05:31:27;;;;;;;4.25;2.70;;;;;;;;;;5067147;28;20040;-61
2022/11/25 05:33:53;;;;;;;5.30;3.13;;;;;;;;;;5066297;28;20482;-61
2022/11/25 05:36:19;;;;;;;8.27;3.75;;;;;;;;;;5071814;28;20052;-61
2022/11/25 05:38:45;;;;;;;8.48;4.38;;;;;;;;;;5067649;28;20103;-61
2022/11/25 05:41:12;;;;;;;8.20;4.45;;;;;;;;;;5066806;28;20048;-61
2022/11/25 05:43:38;;;;;;;5.10;3.42;;;;;;;;;;5099928;28;20059;-61
2022/11/25 05:46:05;;;;;;;4.90;3.17;;;;;;;;;;5067179;28;20503;-61
2022/11/25 05:48:31;;;;;;;6.45;2.88;;;;;;;;;;5067525;28;20040;-61
2022/11/25 05:50:59;;;;;;;8.23;3.58;;;;;;;;;;5067636;28;20139;-61
2022/11/25 05:53:25;;;;;;;7.55;3.67;;;;;;;;;;5066158;28;20594;-61
2022/11/25 05:55:55;;;;;;;8.43;3.63;;;;;;;;;;5064227;28;20037;-61
2022/11/25 05:58:21;;;;;;;8.32;3.85;;;;;;;;;;5067506;28;20055;-61
2022/11/25 06:00:47;;;;;;;7.40;3.80;;;;;;;;;;5066792;28;20048;-61
2022/11/25 06:03:13;;;;;;;5.90;3.38;;;;;;;;;;5067398;28;20051;-61
2022/11/25 06:05:40;;;;;;;6.38;2.90;;;;;;;;;;5067130;28;20044;-61
2022/11/25 06:08:06;;;;;;;5.82;3.35;;;;;;;;;;5066867;28;20056;-61
2022/11/25 06:10:32;;;;;;;7.13;3.63;;;;;;;;;;5066815;28;20052;-61
2022/11/25 06:12:59;;;;;;;5.63;2.50;;;;;;;;;;5067775;28;20135;-61
2022/11/25 06:15:25;;;;;;;3.92;2.05;;;;;;;;;;5066846;28;20147;-61
2022/11/25 06:17:51;;;;;;;4.38;3.10;;;;;;;;;;5067011;28;20047;-61
2022/11/25 06:20:17;;;;;;;6.15;3.50;;;;;;;;;;5066575;28;20048;-61
2022/11/25 06:22:43;;;;;;;5.20;2.83;;;;;;;;;;5066187;28;20086;-61
2022/11/25 06:25:10;;;;;;;5.82;2.70;;;;;;;;;;5067164;28;20430;-61
2022/11/25 06:27:36;;;;;;;4.85;2.80;;;;;;;;;;5066034;28;20135;-61
2022/11/25 06:30:02;;;;;;;3.90;2.45;;;;;;;;;;5067170;28;20144;-62
2022/11/25 06:32:28;;;;;;;6.63;2.70;;;;;;;;;;5067333;28;20036;-61
2022/11/25 06:34:54;;;;;;;6.25;2.97;;;;;;;;;;5070300;28;20500;-61
2022/11/25 06:37:20;;;;;;;6.38;2.90;;;;;;;;;;5065475;28;20036;-61
2022/11/25 06:39:46;;;;;;;6.70;3.15;;;;;;;;;;5067694;28;20048;-61
2022/11/25 06:42:12;;;;;;;4.97;2.90;;;;;;;;;;5066798;28;20400;-61
2022/11/25 06:44:38;;;;;;;4.75;2.10;;;;;;;;;;5065646;28;20052;-61
2022/11/25 06:47:04;;;;;;;3.45;2.05;;;;;;;;;;5066799;28;20502;-61
2022/11/25 06:49:30;;;;;;;2.88;1.98;;;;;;;;;;5067648;28;20054;-60
2022/11/25 06:51:56;;;;;;;4.05;1.95;;;;;;;;;;5066993;28;20138;-61
2022/11/25 06:54:22;;;;;;;4.18;2.10;;;;;;;;;;5066455;28;20044;-61
2022/11/25 06:56:52;;;;;;;3.97;2.03;;;;;;;;;;5066028;28;20068;-61
2022/11/25 06:59:18;;;;;;;3.63;2.28;;;;;;;;;;5065128;28;20053;-61
2022/11/25 07:01:44;;;;;;;6.10;2.38;;;;;;;;;;5098348;28;20055;-61
2022/11/25 07:04:10;;;;;;;7.97;2.67;;;;;;;;;;5065595;28;20044;-61
2022/11/25 07:06:36;;;;;;;3.22;2.17;;;;;;;;;;5066140;28;20719;-61
2022/11/25 07:09:02;;;;;;;3.40;2.30;;;;;;;;;;5066696;28;20041;-61
2022/11/25 07:11:30;;;;;;;4.90;2.47;;;;;;;;;;5064968;28;20071;-61
2022/11/25 07:13:57;;;;;;;6.00;3.08;;;;;;;;;;5066297;28;20067;-61
2022/11/25 07:16:23;;;;;;;9.27;3.15;;;;;;;;;;5064086;28;20048;-61
2022/11/25 07:18:49;;;;;;;3.92;2.35;;;;;;;;;;5065352;28;20048;-61
2022/11/25 07:21:17;;;;;;;5.55;2.65;;;;;;;;;;5067588;28;20048;-61
2022/11/25 07:23:44;;;;;;;8.20;2.78;;;;;;;;;;5066548;28;20056;-61
2022/11/25 07:26:20;;;;;;;7.18;3.00;;;;;;;;;;5066348;28;20047;-61
2022/11/25 07:28:46;;;;;;;5.53;3.05;;;;;;;;;;5065870;28;20044;-61
2022/11/25 07:31:29;;;;;;;8.98;3.60;;;;;;;;;;5069131;28;20033;-61
2022/11/25 07:33:56;;;;;;;8.05;3.63;;;;;;;;;;5063786;28;20045;-61
2022/11/25 07:36:22;;;;;;;4.32;2.90;;;;;;;;;;5068500;28;20052;-61
2022/11/25 07:38:49;;;;;;;4.88;3.10;;;;;;;;;;5064760;28;20063;-61
2022/11/25 07:41:16;;;;;;;5.88;2.80;;;;;;;;;;5064929;28;20080;-61
2022/11/25 07:43:47;;;;;;;3.88;2.45;;;;;;;;;;5063888;28;20071;-60
2022/11/25 07:46:26;;;;;;;10.10;3.55;;;;;;;;;;5062747;28;20036;-61
2022/11/25 07:48:53;;;;;;;7.80;3.65;;;;;;;;;;5064956;28;21039;-62
2022/11/25 07:51:20;;;;;;;6.90;3.40;;;;;;;;;;5065026;28;20056;-61
2022/11/25 07:53:47;;;;;;;5.15;3.58;;;;;;;;;;5063487;28;20453;-61
2022/11/25 07:56:14;;;;;;;8.45;3.30;;;;;;;;;;5065537;28;20080;-61
2022/11/25 07:58:40;;;;;;;5.10;2.83;;;;;;;;;;5064784;28;20041;-60
2022/11/25 08:01:07;;;;;;;7.30;2.50;;;;;;;;;;5064679;28;20080;-61
2022/11/25 08:03:34;;;;;;;5.55;3.00;;;;;;;;;;5062133;28;20494;-61
2022/11/25 08:06:03;;;;;;;7.10;3.33;;;;;;;;;;5064884;28;20044;-61
2022/11/25 08:08:30;;;;;;;7.18;2.67;;;;;;;;;;5063106;28;20994;-61
2022/11/25 08:10:56;;;;;;;6.13;3.30;;;;;;;;;;5063927;28;20649;-61
2022/11/25 08:13:22;;;;;;;3.35;2.10;;;;;;;;;;5064562;28;20048;-61
2022/11/25 08:15:48;;;;;;;4.00;2.13;;;;;;;;;;5063563;28;20094;-61
2022/11/25 08:18:14;;;;;;;6.10;2.63;;;;;;;;;;5063384;28;20052;-61
2022/11/25 08:20:40;;;;;;;3.42;2.38;;;;;;;;;;5063081;28;20080;-61
2022/11/25 08:23:06;;;;;;;4.18;2.05;;;;;;;;;;5063941;28;20048;-61
2022/11/25 08:25:32;;;;;;;5.32;1.95;;;;;;;;;;5063512;28;20099;-61
2022/11/25 08:27:59;;;;;;;6.40;2.58;;;;;;;;;;5064494;28;20087;-61
2022/11/25 08:30:26;;;;;;;4.03;2.25;;;;;;;;;;5062309;28;20076;-61
2022/11/25 08:32:52;;;;;;;6.00;2.90;;;;;;;;;;5063935;28;20094;-61
2022/11/25 08:35:18;;;;;;;3.08;2.10;;;;;;;;;;5063729;28;20117;-61
2022/11/25 08:37:44;;;;;;;5.70;2.67;;;;;;;;;;5067182;28;20071;-61
2022/11/25 08:40:11;;;;;;;5.28;2.38;;;;;;;;;;5064284;28;20041;-61
2022/11/25 08:42:37;;;;;;;4.72;2.10;;;;;;;;;;5063423;28;20593;-61
2022/11/25 08:45:03;;;;;;;2.22;1.92;;;;;;;;;;5064421;28;20421;-61
2022/11/25 08:47:29;;;;;;;3.88;1.75;;;;;;;;;;5063326;28;20103;-61
2022/11/25 08:49:55;;;;;;;3.17;1.85;;;;;;;;;;5065495;28;20439;-61
2022/11/25 08:52:22;;;;;;;3.10;1.60;;;;;;;;;;5062566;28;20051;-61
2022/11/25 08:54:48;;;;;;;5.78;2.20;;;;;;;;;;5064726;28;20905;-61
2022/11/25 08:57:14;;;;;;;6.70;2.22;;;;;;;;;;5063193;28;20048;-61
2022/11/25 08:59:40;;;;;;;4.68;2.20;;;;;;;;;;5063271;28;20052;-61
2022/11/25 09:02:08;;;;;;;3.95;2.20;;;;;;;;;;5064225;28;20552;-61
2022/11/25 09:04:34;;;;;;;6.53;1.98;;;;;;;;;;5062938;28;20443;-61
2022/11/25 09:07:00;;;;;;;4.35;2.28;;;;;;;;;;5064526;28;20040;-61
2022/11/25 09:09:27;;;;;;;4.22;2.15;;;;;;;;;;5063082;28;20128;-61
2022/11/25 09:11:53;;;;;;;3.35;2.25;;;;;;;;;;5063259;28;20052;-61
2022/11/25 09:14:19;;;;;;;3.65;2.50;;;;;;;;;;5064350;28;20063;-61
2022/11/25 09:16:45;;;;;;;3.42;2.33;;;;;;;;;;5063256;28;20044;-61
2022/11/25 09:19:11;;;;;;;7.28;3.40;;;;;;;;;;5063714;28;20083;-61
2022/11/25 09:21:37;;;;;;;3.97;2.50;;;;;;;;;;5063363;28;20068;-61
2022/11/25 09:24:03;;;;;;;4.10;2.85;;;;;;;;;;5063877;28;20048;-61
2022/11/25 09:26:31;;;;;;;4.15;3.17;;;;;;;;;;5062789;28;20053;-61
2022/11/25 09:28:57;;;;;;;3.67;2.35;;;;;;;;;;5063895;28;20487;-61
2022/11/25 09:31:24;;;;;;;7.68;2.85;;;;;;;;;;5063120;28;20055;-61
2022/11/25 09:33:50;;;;;;;3.58;2.72;;;;;;;;;;5063991;28;20041;-61
2022/11/25 09:36:17;;;;;;;4.55;2.40;;;;;;;;;;5063921;28;20052;-61
2022/11/25 09:38:43;;;;;;;6.40;2.70;;;;;;;;;;5062314;28;20043;-61
2022/11/25 09:47:05;;;;;;;4.10;2.53;;;;;;;;;;5064103;28;20041;-61
2022/11/25 09:49:40;;;;;;;4.88;2.35;;;;;;;;;;5065369;28;20516;-61
2022/11/25 09:52:23;;;;;;;4.13;2.13;;;;;;;;;;5068397;28;20090;-61
2022/11/25 09:55:03;;;;;;;4.90;2.83;;;;;;;;;;5067658;28;20052;-61
2022/11/25 09:57:50;;;;;;;4.75;2.67;;;;;;;;;;5064659;28;20395;-61
2022/11/25 10:00:17;;;;;;;5.78;2.75;;;;;;;;;;5063627;28;20083;-61
2022/11/25 10:02:49;;;;;;;7.40;2.67;;;;;;;;;;5068349;28;20130;-61
2022/11/25 10:05:18;;;;;;;4.70;2.42;;;;;;;;;;5067150;28;20475;-61
2022/11/25 10:07:46;;;;;;;3.38;2.10;;;;;;;;;;5065721;28;20032;-61
2022/11/25 10:10:19;;;;;;;9.32;2.33;;;;;;;;;;5072038;28;20077;-61
2022/11/25 10:12:46;;;;;;;3.03;1.67;;;;;;;;;;5066446;28;20110;-61
2022/11/25 10:15:17;;;;;;;3.92;2.35;;;;;;;;;;5069950;28;20083;-61
2022/11/25 10:17:48;;;;;;;4.63;2.38;;;;;;;;;;5067003;28;20047;-61
2022/11/25 10:20:14;;;;;;;5.00;2.10;;;;;;;;;;5064543;28;20152;-61
2022/11/25 10:22:41;;;;;;;6.53;2.92;;;;;;;;;;5065469;28;20070;-61
2022/11/25 10:25:14;;;;;;;6.70;2.40;;;;;;;;;;5066702;28;20045;-61
2022/11/25 10:27:46;;;;;;;6.53;2.35;;;;;;;;;;5066532;28;20101;-61
2022/11/25 10:30:15;;;;;;;7.15;2.42;;;;;;;;;;5068709;28;20396;-61
2022/11/25 10:32:45;;;;;;;5.38;2.50;;;;;;;;;;5067022;28;20036;-61
2022/11/25 10:35:23;;;;;;;7.90;2.78;;;;;;;;;;5066007;28;20044;-61
2022/11/25 10:37:53;;;;;;;5.68;2.40;;;;;;;;;;5069977;28;20048;-61
2022/11/25 10:40:19;;;;;;;5.25;2.20;;;;;;;;;;5099691;27;20106;-60
2022/11/25 10:42:45;;;;;;;5.80;2.47;;;;;;;;;;5061992;28;20460;-60
2022/11/25 10:45:12;;;;;;;4.15;2.28;;;;;;;;;;5062349;28;20135;-60
2022/11/25 10:47:43;;;;;;;4.28;2.35;;;;;;;;;;5065140;28;20055;-60
2022/11/25 10:50:16;;;;;;;3.95;2.08;;;;;;;;;;5066561;28;20052;-60
2022/11/25 10:52:46;;;;;;;5.75;1.85;;;;;;;;;;5082782;28;20518;-60
2022/11/25 10:55:12;;;;;;;4.38;2.10;;;;;;;;;;5072665;28;20055;-61
2022/11/25 10:57:38;;;;;;;6.13;1.83;;;;;;;;;;5066265;28;20055;-60
2022/11/25 11:00:05;;;;;;;3.17;1.52;;;;;;;;;;5066857;28;20048;-60
2022/11/25 11:02:34;;;;;;;5.05;1.70;;;;;;;;;;5066719;28;20044;-60
2022/11/25 11:05:02;;;;;;;2.63;1.70;;;;;;;;;;5064656;28;20053;-60
2022/11/25 11:07:32;;;;;;;4.72;2.22;;;;;;;;;;5080123;28;20067;-61
2022/11/25 11:10:10;;;;;;;3.63;2.05;;;;;;;;;;5065504;28;20052;-61
2022/11/25 11:12:36;;;;;;;7.70;2.88;;;;;;;;;;5066270;28;20110;-60
2022/11/25 11:15:35;;;;;;;6.93;2.35;;;;;;;;;;5067457;28;20045;-60
2022/11/25 11:18:14;;;;;;;9.50;2.33;;;;;;;;;;5045414;28;20064;-61
2022/11/25 11:20:45;;;;;;;3.25;1.60;;;;;;;;;;5060383;28;20041;-60
2022/11/25 11:23:13;;;;;;;6.45;1.98;;;;;;;;;;5065839;28;20495;-61
2022/11/25 11:25:43;;;;;;;9.45;2.63;;;;;;;;;;5064602;28;20518;-60
2022/11/25 11:28:27;;;;;;;6.53;2.60;;;;;;;;;;5063721;28;20044;-61
2022/11/25 11:30:59;;;;;;;4.70;1.90;;;;;;;;;;5063971;28;20094;-61
2022/11/25 11:33:53;;;;;;;8.10;2.63;;;;;;;;;;5065301;28;20617;-60
2022/11/25 11:36:23;;;;;;;5.28;2.25;;;;;;;;;;5075434;28;20053;-60
2022/11/25 11:38:53;;;;;;;4.40;2.05;;;;;;;;;;5063715;28;20047;-60
2022/11/25 11:41:19;;;;;;;4.95;2.38;;;;;;;;;;5066069;28;20048;-60
2022/11/25 11:44:07;;;;;;;7.88;2.70;;;;;;;;;;5064541;28;20098;-60
2022/11/25 11:46:36;;;;;;;9.35;2.72;;;;;;;;;;5065574;28;20048;-60
2022/11/25 11:49:05;;;;;;;5.18;2.38;;;;;;;;;;5065927;28;20054;-60
2022/11/25 11:51:40;;;;;;;11.30;2.97;;;;;;;;;;5074779;28;20044;-61
2022/11/25 11:54:08;;;;;;;5.95;1.63;;;;;;;;;;5066304;28;20722;-60
2022/11/25 11:56:37;;;;;;;7.03;2.45;;;;;;;;;;5065530;28;20055;-60
2022/11/25 11:59:14;;;;;;;5.53;1.70;;;;;;;;;;5065493;28;20049;-60
2022/11/25 12:01:43;;;;;;;7.07;2.25;;;;;;;;;;5065709;28;20526;-60
2022/11/25 12:04:21;;;;;;;4.88;1.63;;;;;;;;;;5065479;28;20040;-60
2022/11/25 12:07:07;;;;;;;4.72;1.48;;;;;;;;;;5066707;28;20098;-60
2022/11/25 12:09:36;;;;;;;6.43;1.75;;;;;;;;;;5064610;28;20542;-60
2022/11/25 12:12:05;;;;;;;4.57;1.92;;;;;;;;;;5066012;28;20127;-60
2022/11/25 12:14:34;;;;;;;4.65;2.05;;;;;;;;;;5065179;28;20128;-60
2022/11/25 12:17:02;;;;;;;6.35;1.67;;;;;;;;;;5065890;28;20460;-60
2022/11/25 12:19:32;;;;;;;8.02;1.75;;;;;;;;;;5065642;28;20043;-60
2022/11/25 12:22:10;;;;;;;6.22;1.77;;;;;;;;;;5065266;28;20131;-60
2022/11/25 12:24:36;;;;;;;11.30;2.00;;;;;;;;;;5065556;28;20055;-60
2022/11/25 12:27:02;;;;;;;4.82;1.50;;;;;;;;;;5065571;28;20041;-60
2022/11/25 12:29:47;;;;;;;9.80;2.28;;;;;;;;;;5065524;28;20048;-60
2022/11/25 12:32:51;;;;;;;5.25;1.90;;;;;;;;;;5064502;28;20049;-60
2022/11/25 12:35:23;;;;;;;5.82;1.95;;;;;;;;;;5017307;28;20056;-60
2022/11/25 12:37:56;;;;;;;6.13;1.75;;;;;;;;;;5023528;28;20235;-60
2022/11/25 12:40:30;;;;;;;9.20;1.83;;;;;;;;;;5049349;28;20052;-60
2022/11/25 12:43:04;;;;;;;6.15;1.52;;;;;;;;;;5064279;28;20145;-60
2022/11/25 12:45:30;;;;;;;12.05;2.13;;;;;;;;;;5067921;28;20503;-60
2022/11/25 12:47:56;;;;;;;6.22;1.98;;;;;;;;;;5065822;28;20111;-60
2022/11/25 12:50:45;;;;;;;3.33;1.00;;;;;;;;;;5065100;28;20040;-60
2022/11/25 12:53:18;;;;;;;6.10;1.75;;;;;;;;;;5058249;28;20044;-60
2022/11/25 12:55:44;;;;;;;7.25;2.20;;;;;;;;;;5061671;28;20120;-60
2022/11/25 12:58:29;;;;;;;8.00;2.13;;;;;;;;;;5063909;28;20608;-60
2022/11/25 13:01:07;;;;;;;6.05;1.92;;;;;;;;;;5064856;28;20415;-60
2022/11/25 13:03:51;;;;;;;5.07;2.05;;;;;;;;;;5063620;28;20380;-60
2022/11/25 13:06:25;;;;;;;7.30;1.95;;;;;;;;;;5059891;28;20098;-60
2022/11/25 13:09:14;;;;;;;7.70;1.90;;;;;;;;;;5065034;28;20094;-60
2022/11/25 13:11:59;;;;;;;6.45;1.85;;;;;;;;;;5064789;28;20535;-60
2022/11/25 13:14:39;;;;;;;7.95;2.13;;;;;;;;;;5063417;28;20041;-60
2022/11/25 13:17:08;;;;;;;6.95;2.25;;;;;;;;;;5054923;28;20037;-60
2022/11/25 13:19:36;;;;;;;7.93;1.45;;;;;;;;;;5068183;28;20040;-60
2022/11/25 13:22:05;;;;;;;8.52;2.08;;;;;;;;;;5068319;28;20097;-60
2022/11/25 13:24:31;;;;;;;11.23;2.53;;;;;;;;;;5070521;28;20048;-60
2022/11/25 13:26:57;;;;;;;13.27;2.17;;;;;;;;;;5065411;28;20052;-61
2022/11/25 13:29:26;;;;;;;8.48;2.17;;;;;;;;;;5067482;28;20659;-61
2022/11/25 13:32:00;;;;;;;5.05;1.30;;;;;;;;;;5070075;28;20047;-60
2022/11/25 13:34:26;;;;;;;7.85;1.95;;;;;;;;;;5068591;28;20045;-61
2022/11/25 13:36:53;;;;;;;12.25;2.00;;;;;;;;;;5068565;28;20062;-61
2022/11/25 13:39:30;;;;;;;7.75;2.28;;;;;;;;;;5066058;28;20452;-61
2022/11/25 13:42:20;;;;;;;13.10;2.35;;;;;;;;;;5072656;28;20043;-61
2022/11/25 13:44:56;;;;;;;9.45;2.45;;;;;;;;;;5069111;28;20529;-64
2022/11/25 13:47:28;;;;;;;5.15;1.92;;;;;;;;;;5073302;28;20056;-63
2022/11/25 13:49:57;;;;;;;2.35;1.40;;;;;;;;;;5063964;28;20044;-61
2022/11/25 13:52:56;;;;;;;6.97;2.28;;;;;;;;;;5057719;28;20418;-61
2022/11/25 13:55:33;;;;;;;7.07;1.80;;;;;;;;;;5042446;28;20427;-61
2022/11/25 13:58:14;;;;;;;9.52;2.08;;;;;;;;;;5058604;28;20084;-60
2022/11/25 14:00:43;;;;;;;6.93;2.10;;;;;;;;;;5067760;28;20048;-61
2022/11/25 14:03:18;;;;;;;3.83;1.38;;;;;;;;;;5073030;28;20078;-61
2022/11/25 14:06:03;;;;;;;6.20;1.88;;;;;;;;;;5065572;28;20049;-60
2022/11/25 14:08:38;;;;;;;7.22;2.38;;;;;;;;;;5090883;28;20625;-61
2022/11/25 14:11:10;;;;;;;8.20;2.25;;;;;;;;;;5061318;28;20057;-61
2022/11/25 14:13:36;;;;;;;8.80;1.58;;;;;;;;;;5060443;28;20079;-61
2022/11/25 14:16:20;;;;;;;3.03;1.10;;;;;;;;;;5070782;28;20044;-61
2022/11/25 14:19:05;;;;;;;4.85;1.60;;;;;;;;;;5060615;28;20037;-61
2022/11/25 14:21:40;;;;;;;4.47;1.70;;;;;;;;;;5060573;28;20051;-60
2022/11/25 14:24:09;;;;;;;4.00;1.02;;;;;;;;;;5062515;28;20045;-61
2022/11/25 14:26:38;;;;;;;3.28;1.17;;;;;;;;;;5059177;28;20048;-61
2022/11/25 14:29:27;;;;;;;4.57;1.33;;;;;;;;;;5048634;28;20049;-60
2022/11/25 14:31:59;;;;;;;2.92;1.10;;;;;;;;;;5045753;28;20523;-60
2022/11/25 14:34:37;;;;;;;4.63;1.15;;;;;;;;;;5053747;28;20492;-60
2022/11/25 14:37:10;;;;;;;5.28;1.08;;;;;;;;;;5069504;28;20052;-61
2022/11/25 14:39:41;;;;;;;4.05;0.88;;;;;;;;;;5071565;28;20063;-61
2022/11/25 14:42:15;;;;;;;3.77;1.07;;;;;;;;;;5067414;28;20048;-61
2022/11/25 14:44:49;;;;;;;7.32;1.25;;;;;;;;;;5067033;28;20414;-61
2022/11/25 14:47:20;;;;;;;5.40;1.58;;;;;;;;;;5061550;28;20036;-61
2022/11/25 14:49:51;;;;;;;5.05;1.35;;;;;;;;;;5047858;28;20041;-61
2022/11/25 14:52:35;;;;;;;2.75;1.55;;;;;;;;;;5057662;28;20045;-61
2022/11/25 14:55:02;;;;;;;3.85;1.67;;;;;;;;;;5066333;28;20048;-61
2022/11/25 14:57:29;;;;;;;3.28;1.45;;;;;;;;;;5057236;28;20037;-61
2022/11/25 14:59:57;;;;;;;2.53;0.82;;;;;;;;;;5066188;28;20055;-61
2022/11/25 15:02:28;;;;;;;4.15;0.88;;;;;;;;;;5067111;28;20797;-61